Time;durP1;ratioP1;P1;durP2;ratioP2;P2;SDS_P1;SDS_P2;PMS_P1;PMS_P2;Temp;Humidity;BMP_temperature;BMP_pressure;BME280_temperature;BME280_humidity;BME280_pressure;Samples;Min_cycle;Max_cycle;Signal;HPM_P1;HPM_P2
2022/07/06 00:01:02;;;;;;;2.15;0.70;;;;;;;14.73;68.46;102667.88;5036408;28;20363;-75
2022/07/06 00:03:27;;;;;;;3.25;0.70;;;;;;;14.72;68.48;102667.03;5070971;28;20505;-75
2022/07/06 00:05:53;;;;;;;1.23;0.70;;;;;;;14.71;68.49;102670.56;5063782;28;20032;-75
2022/07/06 00:08:18;;;;;;;0.50;0.50;;;;;;;14.69;68.27;102675.03;5030872;28;20352;-76
2022/07/06 00:10:43;;;;;;;1.88;0.68;;;;;;;14.67;68.41;102662.81;5040808;28;20378;-75
2022/07/06 00:13:09;;;;;;;0.52;0.52;;;;;;;14.66;68.61;102666.34;5076436;28;20235;-75
2022/07/06 00:15:34;;;;;;;1.75;0.60;;;;;;;14.64;68.63;102665.53;5058912;28;20252;-75
2022/07/06 00:18:00;;;;;;;0.73;0.70;;;;;;;14.61;68.57;102663.84;5076512;28;20197;-75
2022/07/06 00:20:26;;;;;;;1.17;0.60;;;;;;;14.59;68.90;102663.91;5075917;28;20067;-75
2022/07/06 00:22:51;;;;;;;1.30;0.90;;;;;;;14.57;68.65;102662.16;5059181;28;20040;-75
2022/07/06 00:25:16;;;;;;;0.95;0.60;;;;;;;14.55;68.82;102662.22;5057896;28;20063;-75
2022/07/06 00:27:42;;;;;;;0.70;0.50;;;;;;;14.54;68.71;102664.91;5060643;28;20046;-75
2022/07/06 00:30:07;;;;;;;0.65;0.57;;;;;;;14.52;68.89;102661.44;5076493;28;20080;-76
2022/07/06 00:32:33;;;;;;;1.02;0.70;;;;;;;14.51;69.08;102651.78;5059698;28;20222;-75
2022/07/06 00:34:58;;;;;;;1.27;0.70;;;;;;;14.49;68.90;102651.84;5076851;28;20055;-75
2022/07/06 00:37:24;;;;;;;0.93;0.55;;;;;;;14.48;69.02;102644.84;5059143;28;20040;-75
2022/07/06 00:39:49;;;;;;;3.03;0.77;;;;;;;14.46;69.26;102657.22;5042398;28;20024;-75
2022/07/06 00:42:14;;;;;;;1.48;0.70;;;;;;;14.45;69.30;102654.63;5077516;28;20032;-75
2022/07/06 00:44:40;;;;;;;1.90;0.60;;;;;;;14.42;69.34;102657.31;5048805;28;20343;-75
2022/07/06 00:47:07;;;;;;;1.48;0.45;;;;;;;14.40;69.21;102660.00;5069657;28;20338;-75
2022/07/06 00:52:17;;;;;;;1.02;0.90;;;;;;;14.37;69.38;102662.72;5063549;28;20409;-75
2022/07/06 00:54:43;;;;;;;1.20;0.75;;;;;;;14.36;69.19;102661.84;5059575;28;20040;-75
2022/07/06 00:57:09;;;;;;;0.50;0.50;;;;;;;14.34;69.32;102660.19;5076167;28;20044;-75
2022/07/06 00:59:35;;;;;;;0.82;0.70;;;;;;;14.31;69.43;102661.13;5059834;28;20136;-75
2022/07/06 01:02:00;;;;;;;0.85;0.70;;;;;;;14.30;69.60;102663.81;5056599;28;20286;-75
2022/07/06 01:04:26;;;;;;;3.78;0.70;;;;;;;14.29;69.63;102664.72;5076241;28;20036;-75
2022/07/06 01:06:52;;;;;;;0.70;0.57;;;;;;;14.27;69.51;102650.72;5054221;28;20485;-75
2022/07/06 01:09:17;;;;;;;1.52;0.68;;;;;;;14.25;69.85;102653.38;5058167;28;20115;-75
2022/07/06 01:11:43;;;;;;;0.85;0.60;;;;;;;14.24;70.08;102656.06;5076235;28;20063;-75
2022/07/06 01:14:08;;;;;;;1.00;0.80;;;;;;;14.24;70.00;102656.06;5041647;28;20036;-75
2022/07/06 01:16:34;;;;;;;1.10;0.50;;;;;;;14.20;69.91;102650.88;5068407;28;20029;-75
2022/07/06 01:18:59;;;;;;;1.13;0.50;;;;;;;14.20;70.04;102656.13;5067617;28;20296;-75
2022/07/06 01:21:25;;;;;;;0.98;0.50;;;;;;;14.18;69.73;102655.31;5074587;28;20040;-75
2022/07/06 01:23:50;;;;;;;1.13;0.80;;;;;;;14.16;69.73;102649.22;5075872;28;20040;-75
2022/07/06 01:26:19;;;;;;;1.58;0.50;;;;;;;14.16;69.93;102656.28;5053622;28;20387;-75
2022/07/06 01:28:44;;;;;;;3.78;0.88;;;;;;;14.14;69.94;102656.31;5060281;28;20041;-75
2022/07/06 01:31:21;;;;;;;0.98;0.60;;;;;;;14.13;70.24;102645.81;5074859;28;20040;-75
2022/07/06 01:33:49;;;;;;;1.17;0.50;;;;;;;14.11;70.06;102661.66;5064071;28;20024;-75
2022/07/06 01:36:14;;;;;;;2.28;0.68;;;;;;;14.08;69.80;102648.59;5071239;28;20231;-75
2022/07/06 01:38:58;;;;;;;1.08;0.98;;;;;;;14.07;69.96;102652.09;5046401;28;20317;-75
2022/07/06 01:41:23;;;;;;;1.20;0.60;;;;;;;14.05;70.17;102637.25;5057011;28;20344;-75
2022/07/06 01:43:49;;;;;;;0.77;0.52;;;;;;;14.03;70.37;102645.19;5075870;28;20044;-75
2022/07/06 01:46:14;;;;;;;0.50;0.50;;;;;;;14.04;70.20;102640.78;5075704;28;20038;-75
2022/07/06 01:48:40;;;;;;;0.80;0.57;;;;;;;14.01;70.00;102636.47;5075686;28;20024;-75
2022/07/06 01:51:06;;;;;;;0.60;0.60;;;;;;;14.00;70.24;102646.13;5057493;28;20043;-75
2022/07/06 01:53:31;;;;;;;2.30;0.63;;;;;;;13.98;70.28;102647.09;5075627;28;20353;-75
2022/07/06 01:55:57;;;;;;;0.65;0.52;;;;;;;13.97;70.58;102654.13;5075868;28;20282;-75
2022/07/06 01:58:22;;;;;;;0.50;0.50;;;;;;;13.95;70.69;102640.13;5057388;28;20040;-75
2022/07/06 02:00:48;;;;;;;0.80;0.55;;;;;;;13.95;70.54;102648.03;5074521;28;20404;-75
2022/07/06 02:03:13;;;;;;;1.85;0.60;;;;;;;13.93;70.48;102641.91;5074966;28;20299;-75
2022/07/06 02:05:39;;;;;;;0.75;0.57;;;;;;;13.92;70.49;102636.72;5052614;28;20596;-75
2022/07/06 02:08:04;;;;;;;0.93;0.60;;;;;;;13.90;70.40;102643.78;5051392;28;20350;-75
2022/07/06 02:10:30;;;;;;;1.20;0.70;;;;;;;13.89;70.75;102644.69;5075121;28;20059;-75
2022/07/06 02:12:55;;;;;;;1.55;0.95;;;;;;;13.87;70.50;102647.34;5075204;28;20332;-75
2022/07/06 02:15:20;;;;;;;1.42;0.60;;;;;;;13.86;70.64;102643.03;5057200;28;20312;-75
2022/07/06 02:17:46;;;;;;;1.77;0.82;;;;;;;13.85;70.85;102643.91;5055050;28;20044;-77
2022/07/06 02:20:11;;;;;;;1.13;0.73;;;;;;;13.84;70.90;102644.78;5077272;28;20055;-77
2022/07/06 02:22:37;;;;;;;0.90;0.63;;;;;;;13.82;70.82;102651.88;5059676;28;20036;-77
2022/07/06 02:25:02;;;;;;;0.70;0.70;;;;;;;13.81;70.89;102650.16;5059146;28;20151;-77
2022/07/06 02:27:28;;;;;;;1.90;0.80;;;;;;;13.79;70.82;102651.97;5077247;28;20358;-77
2022/07/06 02:29:53;;;;;;;0.98;0.57;;;;;;;13.77;70.83;102648.50;5076560;28;20047;-77
2022/07/06 02:32:18;;;;;;;1.80;0.70;;;;;;;13.77;70.70;102648.50;5056545;28;20090;-77
2022/07/06 02:34:44;;;;;;;1.48;0.85;;;;;;;13.74;71.00;102643.31;5077356;28;20036;-77
2022/07/06 02:37:10;;;;;;;1.52;0.80;;;;;;;13.73;71.01;102645.06;5076105;28;20045;-77
2022/07/06 02:39:35;;;;;;;0.90;0.70;;;;;;;13.72;71.04;102637.22;5076855;28;20032;-77
2022/07/06 02:42:01;;;;;;;1.38;0.68;;;;;;;13.71;70.83;102648.66;5076611;28;20231;-77
2022/07/06 02:44:26;;;;;;;1.40;0.85;;;;;;;13.67;70.75;102639.97;5058504;28;20048;-77
2022/07/06 02:46:51;;;;;;;0.80;0.57;;;;;;;13.68;71.09;102641.72;5041840;28;20028;-76
2022/07/06 02:49:17;;;;;;;0.50;0.50;;;;;;;13.66;71.09;102645.25;5076547;28;20044;-77
2022/07/06 02:51:42;;;;;;;0.70;0.70;;;;;;;13.65;70.94;102643.56;5076569;28;20111;-77
2022/07/06 02:54:07;;;;;;;1.63;0.70;;;;;;;13.64;71.09;102647.94;5076111;28;20597;-77
2022/07/06 02:56:33;;;;;;;1.08;0.68;;;;;;;13.64;71.15;102645.31;5076950;28;20028;-77
2022/07/06 02:58:58;;;;;;;1.67;0.70;;;;;;;13.61;70.77;102643.63;5076500;28;20037;-77
2022/07/06 03:01:24;;;;;;;0.55;0.55;;;;;;;13.60;70.88;102641.88;5050547;28;20057;-75
2022/07/06 03:03:49;;;;;;;1.05;0.80;;;;;;;13.59;70.99;102655.97;5051675;28;20059;-75
2022/07/06 03:06:15;;;;;;;0.50;0.50;;;;;;;13.59;71.03;102655.09;5062079;28;20033;-75
2022/07/06 03:08:40;;;;;;;0.85;0.57;;;;;;;13.58;71.21;102650.72;5062882;28;20045;-75
2022/07/06 03:11:05;;;;;;;3.83;0.70;;;;;;;13.57;70.94;102655.13;5064055;28;20056;-75
2022/07/06 03:13:31;;;;;;;0.82;0.80;;;;;;;13.55;70.82;102653.41;5066901;28;20021;-75
2022/07/06 03:15:56;;;;;;;1.40;0.70;;;;;;;13.54;71.25;102651.72;5066442;28;20028;-75
2022/07/06 03:18:22;;;;;;;0.40;0.40;;;;;;;13.53;71.21;102656.09;5050036;28;20028;-75
2022/07/06 03:20:48;;;;;;;1.23;0.70;;;;;;;13.53;70.80;102655.22;5066032;28;20032;-75
2022/07/06 03:23:13;;;;;;;1.58;0.57;;;;;;;13.50;71.10;102643.03;5047742;28;20064;-75
2022/07/06 03:25:38;;;;;;;1.27;0.70;;;;;;;13.50;71.28;102647.41;5080772;28;20036;-75
2022/07/06 03:28:04;;;;;;;0.60;0.60;;;;;;;13.49;71.25;102649.19;5061336;28;20028;-75
2022/07/06 03:30:29;;;;;;;1.42;0.60;;;;;;;13.48;70.97;102647.47;5069960;28;20036;-75
2022/07/06 03:32:55;;;;;;;1.08;0.70;;;;;;;13.48;71.29;102652.72;5064591;28;20092;-75
2022/07/06 03:35:20;;;;;;;1.25;0.70;;;;;;;13.46;71.32;102659.78;5082783;28;20032;-75
2022/07/06 03:37:45;;;;;;;2.33;0.60;;;;;;;13.45;71.24;102652.78;5083601;28;20047;-75
2022/07/06 03:40:11;;;;;;;2.15;0.88;;;;;;;13.44;71.17;102656.31;5062806;28;20028;-75
2022/07/06 03:42:37;;;;;;;0.65;0.65;;;;;;;13.43;71.42;102649.34;5044462;28;20100;-75
2022/07/06 03:45:06;;;;;;;3.17;0.70;;;;;;;13.42;71.44;102645.84;5071379;28;20335;-75
2022/07/06 03:47:31;;;;;;;0.43;0.40;;;;;;;13.42;71.44;102637.94;5079947;28;20040;-75
2022/07/06 03:49:57;;;;;;;0.73;0.65;;;;;;;13.42;71.45;102640.59;5082839;28;20147;-75
2022/07/06 03:52:22;;;;;;;0.52;0.52;;;;;;;13.41;71.56;102632.72;5082084;28;20040;-74
2022/07/06 03:54:47;;;;;;;1.30;0.70;;;;;;;13.41;71.08;102641.47;5071837;28;20036;-75
2022/07/06 03:57:13;;;;;;;0.75;0.70;;;;;;;13.40;71.25;102631.84;5053712;28;20040;-75
2022/07/06 03:59:39;;;;;;;0.65;0.52;;;;;;;13.41;71.39;102638.84;5064717;28;20150;-75
2022/07/06 04:02:05;;;;;;;0.63;0.63;;;;;;;13.40;71.73;102634.47;5082075;28;20028;-75
2022/07/06 04:04:31;;;;;;;0.52;0.52;;;;;;;13.40;71.94;102642.34;5063711;28;20425;-75
2022/07/06 04:06:56;;;;;;;2.28;0.65;;;;;;;13.41;71.96;102635.34;5080874;28;20028;-75
2022/07/06 04:09:21;;;;;;;0.88;0.60;;;;;;;13.40;71.95;102639.72;5063427;28;20083;-75
2022/07/06 04:11:47;;;;;;;1.48;0.60;;;;;;;13.40;71.89;102628.34;5064218;28;20271;-75
2022/07/06 04:14:12;;;;;;;0.70;0.60;;;;;;;13.40;71.95;102633.59;5046796;28;20104;-75
2022/07/06 04:16:38;;;;;;;0.77;0.60;;;;;;;13.39;71.64;102634.53;5076390;28;20067;-75
2022/07/06 04:19:03;;;;;;;1.13;0.68;;;;;;;13.39;71.59;102635.38;5061216;28;20220;-74
2022/07/06 04:21:28;;;;;;;1.05;0.60;;;;;;;13.40;71.63;102636.25;5069215;28;20408;-75
2022/07/06 04:23:54;;;;;;;1.77;0.82;;;;;;;13.40;71.67;102630.97;5081464;28;20082;-75
2022/07/06 04:26:20;;;;;;;2.15;0.73;;;;;;;13.40;71.54;102631.84;5081481;28;20432;-75
2022/07/06 04:28:45;;;;;;;0.70;0.70;;;;;;;13.40;72.08;102628.34;5082461;28;20059;-75
2022/07/06 04:31:14;;;;;;;0.70;0.70;;;;;;;13.41;71.65;102635.34;5062611;28;20036;-75
2022/07/06 04:33:40;;;;;;;0.70;0.60;;;;;;;13.39;72.03;102627.50;5044571;28;20032;-74
2022/07/06 04:36:05;;;;;;;2.40;0.77;;;;;;;13.40;71.96;102631.84;5063161;28;20044;-75
2022/07/06 04:38:31;;;;;;;1.30;0.68;;;;;;;13.40;72.13;102629.19;5081815;28;20043;-75
2022/07/06 04:40:56;;;;;;;0.93;0.82;;;;;;;13.41;72.27;102630.09;5063473;28;20173;-74
2022/07/06 04:43:21;;;;;;;1.20;0.70;;;;;;;13.42;72.33;102634.44;5062909;28;20052;-75
2022/07/06 04:45:47;;;;;;;2.05;0.70;;;;;;;13.42;72.63;102634.44;5081729;28;20039;-75
2022/07/06 04:48:12;;;;;;;5.10;0.95;;;;;;;13.42;72.54;102640.59;5052420;28;20060;-74
2022/07/06 04:50:37;;;;;;;2.03;0.90;;;;;;;13.42;72.63;102640.59;5047524;28;20044;-75
2022/07/06 04:53:03;;;;;;;0.90;0.90;;;;;;;13.43;72.55;102641.44;5080582;28;20032;-74
2022/07/06 04:55:29;;;;;;;0.70;0.70;;;;;;;13.43;72.47;102641.44;5063512;28;20048;-75
2022/07/06 04:57:55;;;;;;;0.63;0.60;;;;;;;13.43;72.59;102644.06;5062709;28;20254;-75
2022/07/06 05:00:21;;;;;;;1.08;0.70;;;;;;;13.43;72.69;102637.03;5079432;28;20068;-75
2022/07/06 05:02:46;;;;;;;0.70;0.63;;;;;;;13.43;72.64;102642.28;5073635;28;20064;-74
2022/07/06 05:05:12;;;;;;;2.17;0.70;;;;;;;13.43;72.72;102646.72;5062729;28;20346;-74
2022/07/06 05:07:39;;;;;;;0.90;0.82;;;;;;;13.45;72.58;102652.78;5063205;28;20391;-75
2022/07/06 05:10:06;;;;;;;2.58;0.75;;;;;;;13.46;72.82;102649.25;5080376;28;20348;-75
2022/07/06 05:12:32;;;;;;;1.70;0.80;;;;;;;13.46;73.04;102657.13;5078565;28;20191;-74
2022/07/06 05:14:57;;;;;;;1.50;1.00;;;;;;;13.46;72.87;102657.13;5076808;28;20036;-74
2022/07/06 05:17:22;;;;;;;1.10;0.93;;;;;;;13.47;73.04;102656.25;5062462;28;20078;-74
2022/07/06 05:19:48;;;;;;;0.70;0.70;;;;;;;13.48;73.42;102655.38;5078869;28;20038;-74
2022/07/06 05:22:13;;;;;;;0.65;0.65;;;;;;;13.49;73.13;102666.75;5060951;28;20331;-75
2022/07/06 05:24:39;;;;;;;0.90;0.70;;;;;;;13.50;73.37;102671.97;5060045;28;20091;-75
2022/07/06 05:27:04;;;;;;;2.55;0.60;;;;;;;13.50;73.36;102661.44;5059920;28;20314;-75
2022/07/06 05:29:29;;;;;;;0.95;0.60;;;;;;;13.52;73.44;102666.69;5080066;28;20033;-75
2022/07/06 05:31:55;;;;;;;0.88;0.65;;;;;;;13.53;73.59;102671.88;5062668;28;20275;-75
2022/07/06 05:34:20;;;;;;;0.63;0.60;;;;;;;13.55;73.45;102667.47;5062376;28;20035;-74
2022/07/06 05:36:46;;;;;;;1.10;0.43;;;;;;;13.56;73.36;102665.69;5080796;28;20151;-74
2022/07/06 05:39:11;;;;;;;0.73;0.40;;;;;;;13.56;72.87;102661.28;5080392;28;20059;-74
2022/07/06 05:41:36;;;;;;;0.50;0.50;;;;;;;13.57;72.64;102663.03;5080476;28;20036;-75
2022/07/06 05:44:02;;;;;;;1.88;0.55;;;;;;;13.58;73.04;102666.53;5061531;28;20039;-75
2022/07/06 05:46:28;;;;;;;0.40;0.40;;;;;;;13.59;72.86;102666.50;5062216;28;20032;-75
2022/07/06 05:51:37;;;;;;;1.00;0.60;;;;;;;13.62;73.27;102666.44;5065617;28;20063;-74
2022/07/06 05:54:02;;;;;;;2.08;0.60;;;;;;;13.63;73.26;102656.75;5063274;28;20028;-74
2022/07/06 05:56:28;;;;;;;1.73;0.50;;;;;;;13.66;73.36;102661.06;5081285;28;20320;-74
2022/07/06 05:58:53;;;;;;;1.58;0.60;;;;;;;13.69;73.69;102663.63;5080275;28;20063;-74
2022/07/06 06:01:18;;;;;;;0.70;0.70;;;;;;;13.70;73.42;102663.59;5062738;28;20024;-74
2022/07/06 06:03:44;;;;;;;2.05;0.80;;;;;;;13.72;73.66;102658.28;5063107;28;20041;-74
2022/07/06 06:06:09;;;;;;;1.75;0.73;;;;;;;13.74;73.79;102669.66;5062836;28;20032;-74
2022/07/06 06:08:35;;;;;;;2.65;0.63;;;;;;;13.74;73.65;102672.28;5063407;28;20311;-74
2022/07/06 06:11:00;;;;;;;0.50;0.50;;;;;;;13.75;73.62;102672.25;5045887;28;20044;-74
2022/07/06 06:13:25;;;;;;;3.10;0.40;;;;;;;13.77;73.42;102664.28;5046120;28;20047;-74
2022/07/06 06:15:51;;;;;;;0.38;0.38;;;;;;;13.80;73.49;102664.22;5063381;28;20044;-74
2022/07/06 06:18:19;;;;;;;1.27;0.50;;;;;;;13.81;73.56;102663.34;5062556;28;20036;-74
2022/07/06 06:20:45;;;;;;;0.82;0.30;;;;;;;13.84;73.28;102671.13;5080848;28;20040;-74
2022/07/06 06:23:11;;;;;;;0.50;0.50;;;;;;;13.85;73.17;102667.59;5062775;28;20040;-74
2022/07/06 06:25:38;;;;;;;1.45;0.40;;;;;;;13.86;73.49;102668.47;5062732;28;20399;-74
2022/07/06 06:28:06;;;;;;;0.85;0.40;;;;;;;13.89;73.25;102668.41;5061728;28;20054;-74
2022/07/06 06:30:32;;;;;;;0.55;0.50;;;;;;;13.90;73.19;102668.38;5081152;28;20082;-75
2022/07/06 06:33:08;;;;;;;0.28;0.28;;;;;;;13.93;72.90;102673.53;5059950;28;20024;-74
2022/07/06 06:35:34;;;;;;;1.35;0.52;;;;;;;13.96;72.59;102672.59;5059167;28;20037;-75
2022/07/06 06:37:59;;;;;;;1.20;0.50;;;;;;;13.97;72.82;102676.94;5066075;28;20346;-75
2022/07/06 06:40:24;;;;;;;0.82;0.40;;;;;;;13.99;72.45;102669.91;5062524;28;20086;-75
2022/07/06 06:42:50;;;;;;;1.02;0.50;;;;;;;14.01;72.53;102670.72;5055749;28;20036;-75
2022/07/06 06:45:15;;;;;;;0.40;0.40;;;;;;;14.02;72.85;102669.78;5041742;28;20104;-75
2022/07/06 06:47:40;;;;;;;0.80;0.40;;;;;;;14.05;72.70;102672.38;5055794;28;20106;-74
2022/07/06 06:50:06;;;;;;;0.47;0.32;;;;;;;14.08;72.21;102679.31;5070931;28;20375;-75
2022/07/06 06:52:32;;;;;;;1.48;0.52;;;;;;;14.11;72.10;102677.47;5061519;28;20090;-74
2022/07/06 06:54:57;;;;;;;0.30;0.30;;;;;;;14.12;72.05;102676.56;5079009;28;20197;-74
2022/07/06 06:57:23;;;;;;;0.40;0.30;;;;;;;14.14;71.84;102679.16;5062085;28;20063;-74
2022/07/06 06:59:48;;;;;;;0.85;0.38;;;;;;;14.17;71.42;102682.59;5061517;28;20382;-74
2022/07/06 07:02:14;;;;;;;0.82;0.47;;;;;;;14.18;71.27;102672.91;5062692;28;20032;-75
2022/07/06 07:04:39;;;;;;;0.63;0.40;;;;;;;14.20;71.12;102676.34;5080474;28;20041;-74
2022/07/06 07:07:05;;;;;;;0.28;0.25;;;;;;;14.24;70.83;102677.13;5062021;28;20101;-75
2022/07/06 07:09:30;;;;;;;0.20;0.20;;;;;;;14.25;70.30;102676.25;5051999;28;20040;-74
2022/07/06 07:11:56;;;;;;;0.30;0.20;;;;;;;14.27;70.54;102674.44;5042112;28;20043;-74
2022/07/06 07:14:21;;;;;;;1.77;0.30;;;;;;;14.28;70.37;102679.66;5042625;28;20221;-74
2022/07/06 07:16:47;;;;;;;0.38;0.20;;;;;;;14.30;69.94;102675.22;5026419;28;20037;-74
2022/07/06 07:19:12;;;;;;;0.90;0.30;;;;;;;14.33;69.11;102679.53;5041930;28;20370;-75
2022/07/06 07:21:37;;;;;;;1.10;0.43;;;;;;;14.34;69.02;102682.13;5060236;28;20064;-75
2022/07/06 07:24:03;;;;;;;1.05;0.30;;;;;;;14.38;68.93;102675.00;5042201;28;20310;-74
2022/07/06 07:26:28;;;;;;;0.88;0.32;;;;;;;14.40;68.64;102678.44;5043058;28;20029;-75
2022/07/06 07:28:54;;;;;;;1.33;0.65;;;;;;;14.43;68.80;102678.38;5025456;28;20033;-75
2022/07/06 07:31:19;;;;;;;0.80;0.50;;;;;;;14.48;68.52;102672.97;5041940;28;20054;-75
2022/07/06 07:33:44;;;;;;;3.40;0.30;;;;;;;14.51;68.39;102675.53;5050177;28;20087;-75
2022/07/06 07:36:10;;;;;;;0.45;0.30;;;;;;;14.55;68.68;102671.88;5056196;28;20037;-75
2022/07/06 07:38:35;;;;;;;0.25;0.20;;;;;;;14.57;68.07;102673.63;5060214;28;20032;-74
2022/07/06 07:41:01;;;;;;;0.90;0.30;;;;;;;14.59;67.93;102673.59;5059966;28;20284;-75
2022/07/06 07:43:26;;;;;;;0.60;0.40;;;;;;;14.61;67.42;102673.50;5060141;28;20037;-75
2022/07/06 07:45:52;;;;;;;3.55;0.40;;;;;;;14.64;66.74;102678.72;5025251;28;20040;-75
2022/07/06 07:48:17;;;;;;;1.30;0.17;;;;;;;14.68;66.17;102667.16;5060432;28;20063;-75
2022/07/06 07:50:43;;;;;;;1.17;0.40;;;;;;;14.70;66.34;102666.22;5041441;28;20036;-75
2022/07/06 07:53:08;;;;;;;0.68;0.30;;;;;;;14.74;65.22;102667.00;5059595;28;20029;-75
2022/07/06 07:55:33;;;;;;;1.45;0.20;;;;;;;14.78;64.11;102666.84;5042093;28;20036;-75
2022/07/06 07:57:59;;;;;;;1.40;0.52;;;;;;;14.84;64.00;102664.94;5062393;28;20067;-75
2022/07/06 08:00:25;;;;;;;1.00;0.30;;;;;;;14.89;65.26;102676.22;5063953;28;20222;-75
2022/07/06 08:02:50;;;;;;;1.27;0.40;;;;;;;14.90;64.52;102667.41;5063883;28;20048;-75
2022/07/06 08:05:16;;;;;;;2.40;0.40;;;;;;;14.93;64.31;102654.13;5063342;28;20037;-75
2022/07/06 08:07:42;;;;;;;0.40;0.30;;;;;;;14.96;64.44;102656.66;5046245;28;20267;-75
2022/07/06 08:10:09;;;;;;;2.15;0.30;;;;;;;15.00;64.81;102654.81;5078609;28;20090;-75
2022/07/06 08:12:35;;;;;;;0.82;0.50;;;;;;;15.04;65.07;102651.16;5100039;28;20092;-75
2022/07/06 08:15:00;;;;;;;0.68;0.25;;;;;;;15.05;64.79;102651.13;5103618;28;20065;-75
2022/07/06 08:17:25;;;;;;;1.00;0.82;;;;;;;15.09;64.02;102646.59;5103784;28;20038;-75
2022/07/06 08:19:51;;;;;;;2.00;0.40;;;;;;;15.14;64.23;102655.25;5085754;28;20276;-75
2022/07/06 08:22:16;;;;;;;0.60;0.10;;;;;;;15.18;63.61;102656.88;5085233;28;20039;-75
2022/07/06 08:24:42;;;;;;;0.68;0.20;;;;;;;15.18;63.11;102654.22;5103413;28;20043;-75
2022/07/06 08:27:07;;;;;;;0.10;0.10;;;;;;;15.22;62.39;102647.09;5084711;28;20350;-75
2022/07/06 08:29:32;;;;;;;0.32;0.22;;;;;;;15.26;62.77;102646.06;5104179;28;20047;-75
2022/07/06 08:31:58;;;;;;;0.75;0.20;;;;;;;15.28;62.67;102645.13;5103925;28;20032;-75
2022/07/06 08:34:23;;;;;;;2.38;0.50;;;;;;;15.32;63.29;102651.16;5085129;28;20079;-75
2022/07/06 08:36:49;;;;;;;1.23;0.10;;;;;;;15.34;63.52;102654.63;5098276;28;20111;-75
2022/07/06 08:39:15;;;;;;;1.02;0.57;;;;;;;15.33;61.37;102648.50;5085053;28;20034;-75
2022/07/06 08:41:47;;;;;;;0.40;0.20;;;;;;;15.36;62.69;102643.09;5082571;28;20059;-76
2022/07/06 08:44:16;;;;;;;0.80;0.30;;;;;;;15.38;62.31;102648.31;5094030;28;20027;-76
2022/07/06 08:46:42;;;;;;;2.25;0.40;;;;;;;15.38;61.17;102648.31;5101204;28;20231;-76
2022/07/06 08:49:08;;;;;;;1.73;0.25;;;;;;;15.39;60.62;102650.06;5060189;28;20028;-76
2022/07/06 08:51:37;;;;;;;0.30;0.20;;;;;;;15.41;61.64;102642.94;5084664;28;20036;-75
2022/07/06 08:54:03;;;;;;;0.88;0.30;;;;;;;15.46;62.70;102642.78;5084592;28;20093;-75
2022/07/06 08:56:29;;;;;;;1.27;0.28;;;;;;;15.46;62.84;102646.31;5095219;28;20023;-76
2022/07/06 08:58:55;;;;;;;0.40;0.30;;;;;;;15.49;63.23;102645.34;5076376;28;20582;-76
2022/07/06 09:01:21;;;;;;;1.75;0.40;;;;;;;15.52;63.45;102645.25;5097774;28;20235;-76
2022/07/06 09:03:51;;;;;;;0.90;0.40;;;;;;;15.52;62.62;102639.97;5092218;28;20315;-76
2022/07/06 09:06:22;;;;;;;1.38;0.30;;;;;;;15.55;60.75;102647.75;5097955;28;20027;-76
2022/07/06 09:08:49;;;;;;;0.63;0.32;;;;;;;15.57;61.53;102638.00;5101049;28;20047;-76
2022/07/06 09:11:14;;;;;;;0.50;0.30;;;;;;;15.59;60.81;102645.88;5083713;28;20039;-76
2022/07/06 09:13:39;;;;;;;0.38;0.32;;;;;;;15.61;61.32;102644.94;5067751;28;20077;-76
2022/07/06 09:16:13;;;;;;;0.30;0.30;;;;;;;15.64;60.74;102644.81;5081558;28;20266;-76
2022/07/06 09:18:41;;;;;;;0.82;0.40;;;;;;;15.66;61.11;102643.00;5103031;28;20046;-76
2022/07/06 09:21:06;;;;;;;0.85;0.50;;;;;;;15.70;60.11;102635.84;5102324;28;20040;-76
2022/07/06 09:23:33;;;;;;;1.20;0.40;;;;;;;15.77;61.14;102647.97;5102878;28;20137;-76
2022/07/06 09:26:01;;;;;;;0.60;0.30;;;;;;;15.82;61.20;102646.00;5099670;28;20352;-76
2022/07/06 09:28:43;;;;;;;0.67;0.30;;;;;;;15.86;61.71;102645.00;5084812;28;20040;-76
2022/07/06 09:31:09;;;;;;;3.40;0.50;;;;;;;15.89;60.03;102654.59;5101234;28;20361;-76
2022/07/06 09:33:35;;;;;;;1.33;0.30;;;;;;;15.90;59.34;102649.28;5101886;28;20028;-76
2022/07/06 09:36:02;;;;;;;1.65;0.50;;;;;;;15.93;58.95;102656.22;5092836;28;20361;-76
2022/07/06 09:38:27;;;;;;;1.77;0.30;;;;;;;15.98;59.12;102661.34;5102803;28;20047;-76
2022/07/06 09:40:53;;;;;;;1.10;0.30;;;;;;;16.01;59.46;102661.22;5102384;28;20036;-75
2022/07/06 09:43:23;;;;;;;1.90;0.50;;;;;;;16.02;58.96;102669.09;5102059;28;20047;-76
2022/07/06 09:45:53;;;;;;;3.60;0.63;;;;;;;16.06;59.41;102677.78;5099440;28;20042;-76
2022/07/06 09:48:29;;;;;;;1.67;0.30;;;;;;;16.09;59.56;102678.56;5078797;28;20032;-76
2022/07/06 09:50:57;;;;;;;1.60;0.50;;;;;;;16.10;59.82;102675.00;5092109;28;20287;-76
2022/07/06 09:53:24;;;;;;;1.38;0.47;;;;;;;16.11;59.40;102679.34;5081587;28;20020;-76
2022/07/06 09:55:52;;;;;;;1.58;0.60;;;;;;;16.14;60.02;102673.13;5103056;28;20031;-76
2022/07/06 09:58:18;;;;;;;2.30;0.47;;;;;;;16.16;59.67;102673.94;5100881;28;20263;-76
2022/07/06 10:00:45;;;;;;;1.67;0.70;;;;;;;16.20;59.20;102669.41;5074744;28;20089;-76
2022/07/06 10:03:12;;;;;;;1.27;0.80;;;;;;;16.23;59.30;102671.94;5083274;28;20104;-76
2022/07/06 10:05:40;;;;;;;0.85;0.75;;;;;;;16.27;60.31;102666.47;5102943;28;20026;-76
2022/07/06 10:08:09;;;;;;;1.67;0.70;;;;;;;16.29;61.31;102662.00;5100121;28;20035;-76
2022/07/06 10:10:36;;;;;;;1.98;0.47;;;;;;;16.30;59.94;102655.78;5101934;28;20497;-76
2022/07/06 10:13:02;;;;;;;0.40;0.25;;;;;;;16.35;60.29;102660.03;5102200;28;20047;-76
2022/07/06 10:15:33;;;;;;;0.45;0.40;;;;;;;16.39;60.42;102656.38;5081581;28;20074;-76
2022/07/06 10:18:04;;;;;;;1.58;0.35;;;;;;;16.42;60.64;102659.75;5100530;28;20036;-76
2022/07/06 10:20:32;;;;;;;2.92;0.52;;;;;;;16.44;59.27;102673.78;5103112;28;20089;-76
2022/07/06 10:23:00;;;;;;;0.73;0.50;;;;;;;16.47;58.47;102670.19;5099959;28;20043;-76
2022/07/06 10:25:26;;;;;;;0.90;0.40;;;;;;;16.52;60.48;102665.59;5078329;28;20319;-76
2022/07/06 10:27:54;;;;;;;2.97;0.50;;;;;;;16.57;61.61;102663.66;5099390;28;20040;-76
2022/07/06 10:30:21;;;;;;;1.65;0.60;;;;;;;16.60;58.29;102660.88;5078002;28;20039;-76
2022/07/06 10:32:50;;;;;;;1.58;0.55;;;;;;;16.66;58.91;102660.66;5077440;28;20032;-76
2022/07/06 10:35:18;;;;;;;0.95;0.50;;;;;;;16.71;58.08;102657.81;5093963;28;20019;-76
2022/07/06 10:37:44;;;;;;;4.13;0.50;;;;;;;16.75;58.21;102648.84;5084498;28;20050;-76
2022/07/06 10:42:58;;;;;;;2.78;0.55;;;;;;;16.90;59.27;102644.81;5101235;28;20078;-76
2022/07/06 10:45:26;;;;;;;0.63;0.40;;;;;;;16.95;60.81;102641.97;5102393;28;20144;-76
2022/07/06 10:48:10;;;;;;;0.77;0.35;;;;;;;16.99;59.66;102652.38;5095919;28;20024;-76
2022/07/06 10:50:36;;;;;;;1.90;0.65;;;;;;;17.01;60.99;102645.25;5092128;28;20339;-76
2022/07/06 10:53:02;;;;;;;1.52;0.50;;;;;;;17.05;60.10;102649.50;5080641;28;20028;-76
2022/07/06 10:55:39;;;;;;;0.70;0.55;;;;;;;17.12;59.68;102641.28;5102608;28;20024;-76
2022/07/06 10:58:05;;;;;;;0.85;0.38;;;;;;;17.16;60.82;102640.28;5096051;28;20058;-76
2022/07/06 11:00:51;;;;;;;2.35;0.40;;;;;;;17.25;59.80;102639.91;5097470;28;20032;-76
2022/07/06 11:03:45;;;;;;;1.67;0.60;;;;;;;17.30;59.25;102643.22;5099627;28;20059;-76
2022/07/06 11:06:19;;;;;;;2.50;0.57;;;;;;;17.32;60.05;102630.78;5071639;28;20035;-76
2022/07/06 11:08:45;;;;;;;3.03;0.60;;;;;;;17.37;59.34;102622.63;5075985;28;20039;-76
2022/07/06 11:11:18;;;;;;;0.67;0.53;;;;;;;17.40;59.18;102620.72;5073019;28;20069;-77
2022/07/06 11:13:54;;;;;;;0.60;0.40;;;;;;;17.44;59.28;102616.16;5096072;28;20309;-76
2022/07/06 11:16:26;;;;;;;1.83;0.82;;;;;;;17.49;57.53;102616.84;5098848;28;20024;-76
2022/07/06 11:19:04;;;;;;;2.13;0.95;;;;;;;17.55;60.64;102615.72;5098953;28;20057;-76
2022/07/06 11:21:43;;;;;;;3.63;0.63;;;;;;;17.58;59.36;102611.16;5087385;28;20281;-76
2022/07/06 11:24:20;;;;;;;1.23;0.55;;;;;;;17.61;60.22;102611.03;5093397;28;20066;-76
2022/07/06 11:26:47;;;;;;;3.10;0.43;;;;;;;17.65;59.22;102596.72;5097553;28;20028;-77
2022/07/06 11:29:14;;;;;;;2.13;0.60;;;;;;;17.71;60.83;102606.19;5095978;28;20085;-76